Time;durP1;ratioP1;P1;durP2;ratioP2;P2;SDS_P1;SDS_P2;PMS_P1;PMS_P2;Temp;Humidity;BMP_temperature;BMP_pressure;BME280_temperature;BME280_humidity;BME280_pressure;Samples;Min_cycle;Max_cycle;Signal;HPM_P1;HPM_P2
2021/05/09 00:00:21;;;;;;;0.10;0.10;;;;;;;17.31;29.24;98251.63;4997640;28;20546;-65
2021/05/09 00:02:46;;;;;;;0.40;0.40;;;;;;;17.30;29.03;98265.78;5015178;28;20034;-64
2021/05/09 00:05:13;;;;;;;0.20;0.20;;;;;;;17.27;29.31;98263.56;5015219;28;20052;-64
2021/05/09 00:07:39;;;;;;;1.65;0.30;;;;;;;17.25;29.23;98274.16;5015011;28;20106;-64
2021/05/09 00:10:08;;;;;;;0.10;0.10;;;;;;;17.23;29.40;98271.66;5015286;28;20026;-63
2021/05/09 00:12:34;;;;;;;0.10;0.10;;;;;;;17.22;29.22;98267.22;4997947;28;20041;-64
2021/05/09 00:15:00;;;;;;;0.57;0.55;;;;;;;17.21;29.50;98271.16;5015510;28;20034;-63
2021/05/09 00:17:25;;;;;;;0.10;0.10;;;;;;;17.22;29.11;98269.19;5015152;28;20025;-63
2021/05/09 00:19:51;;;;;;;0.10;0.10;;;;;;;17.18;29.20;98271.72;5015141;28;20030;-65
2021/05/09 00:22:17;;;;;;;0.10;0.10;;;;;;;17.14;29.37;98267.88;5015301;28;20507;-65
2021/05/09 00:24:43;;;;;;;0.10;0.10;;;;;;;17.07;29.47;98273.75;5015311;28;20383;-64
2021/05/09 00:27:08;;;;;;;0.47;0.20;;;;;;;16.98;29.63;98276.31;5014856;28;20084;-64
2021/05/09 00:29:34;;;;;;;0.20;0.20;;;;;;;16.91;29.90;98277.78;5014889;28;20026;-64
2021/05/09 00:32:00;;;;;;;0.77;0.38;;;;;;;16.86;29.84;98278.63;5014879;28;20034;-64
2021/05/09 00:34:26;;;;;;;0.20;0.20;;;;;;;16.83;29.80;98284.75;4997088;28;20050;-64
2021/05/09 00:36:51;;;;;;;0.10;0.10;;;;;;;16.77;29.74;98278.41;5014646;28;20040;-64
2021/05/09 00:39:17;;;;;;;0.43;0.43;;;;;;;16.69;30.04;98281.78;5014527;28;20030;-64
2021/05/09 00:41:43;;;;;;;0.45;0.45;;;;;;;16.61;29.98;98285.19;5014686;28;20040;-66
2021/05/09 00:44:09;;;;;;;0.20;0.20;;;;;;;16.57;30.21;98289.63;5015076;28;20141;-63
2021/05/09 00:46:34;;;;;;;2.55;0.70;;;;;;;16.50;30.42;98284.41;5014536;28;20069;-62
2021/05/09 00:49:02;;;;;;;0.52;0.52;;;;;;;16.43;30.29;98287.50;5014852;28;20038;-62
2021/05/09 00:51:28;;;;;;;0.30;0.30;;;;;;;16.34;30.64;98292.00;5014178;28;20037;-62
2021/05/09 00:53:56;;;;;;;1.48;0.60;;;;;;;16.27;30.47;98289.53;5014500;28;20037;-65
2021/05/09 00:56:25;;;;;;;0.35;0.30;;;;;;;16.28;30.41;98287.56;5014104;28;20030;-65
2021/05/09 00:58:53;;;;;;;0.13;0.13;;;;;;;16.33;30.54;98289.47;5014086;28;20068;-65
2021/05/09 01:01:20;;;;;;;0.55;0.55;;;;;;;16.40;30.39;98293.63;5014520;28;20030;-65
2021/05/09 01:03:47;;;;;;;0.68;0.55;;;;;;;16.57;30.27;98289.63;5012701;28;20064;-64
2021/05/09 01:06:13;;;;;;;0.30;0.30;;;;;;;16.87;30.05;98294.19;4996015;28;20404;-64
2021/05/09 01:08:39;;;;;;;0.93;0.45;;;;;;;17.11;29.57;98293.44;5013937;28;20045;-64
2021/05/09 01:11:06;;;;;;;0.25;0.25;;;;;;;17.48;29.06;98291.97;5014056;28;20029;-64
2021/05/09 01:13:33;;;;;;;0.15;0.15;;;;;;;17.97;28.67;98295.63;5014093;28;20412;-65
2021/05/09 01:16:02;;;;;;;0.30;0.30;;;;;;;18.61;28.05;98301.75;5014036;28;20502;-64
2021/05/09 01:18:29;;;;;;;0.30;0.30;;;;;;;19.26;27.48;98301.00;5013291;28;20061;-63
2021/05/09 01:20:55;;;;;;;0.40;0.40;;;;;;;19.78;27.07;98311.25;5014178;28;20091;-66
2021/05/09 01:23:22;;;;;;;0.47;0.47;;;;;;;20.23;26.65;98305.88;5014004;28;20539;-64
2021/05/09 01:25:48;;;;;;;2.58;0.60;;;;;;;20.67;26.34;98299.94;5014240;28;20061;-63
2021/05/09 01:28:14;;;;;;;0.25;0.25;;;;;;;21.31;25.59;98309.00;5014243;28;20064;-65
2021/05/09 01:30:41;;;;;;;0.22;0.22;;;;;;;22.38;24.94;98293.25;5014049;28;20034;-64
2021/05/09 01:33:06;;;;;;;0.20;0.20;;;;;;;23.59;23.86;98306.78;5014422;28;20038;-65
2021/05/09 01:35:34;;;;;;;0.43;0.38;;;;;;;24.70;23.33;98301.34;4995861;28;20523;-65
2021/05/09 01:38:00;;;;;;;0.10;0.10;;;;;;;25.57;22.51;98305.41;5013729;28;20083;-65
2021/05/09 01:40:26;;;;;;;0.20;0.20;;;;;;;26.34;22.09;98313.25;5013513;28;20021;-65
2021/05/09 01:42:51;;;;;;;0.20;0.20;;;;;;;27.11;22.00;98312.44;5013528;28;20416;-65
2021/05/09 01:45:17;;;;;;;0.15;0.15;;;;;;;27.82;21.78;98307.19;5013943;28;20022;-64
2021/05/09 01:47:43;;;;;;;0.45;0.45;;;;;;;28.47;21.20;98306.84;5013506;28;20057;-64
2021/05/09 01:50:12;;;;;;;0.10;0.10;;;;;;;29.09;21.24;98300.56;5013229;28;20121;-64
2021/05/09 01:52:38;;;;;;;0.32;0.32;;;;;;;29.00;21.63;98303.66;5013345;28;20044;-63
2021/05/09 01:55:08;;;;;;;1.08;0.73;;;;;;;29.29;21.49;98298.59;5013204;28;20399;-63
2021/05/09 01:57:34;;;;;;;1.35;0.90;;;;;;;29.93;21.14;98311.56;5013008;28;20033;-64
2021/05/09 02:00:00;;;;;;;0.40;0.40;;;;;;;30.58;20.64;98307.81;5013549;28;20453;-64
2021/05/09 02:02:26;;;;;;;0.35;0.35;;;;;;;31.21;20.41;98308.31;4995356;28;20030;-64
2021/05/09 02:04:52;;;;;;;0.30;0.30;;;;;;;31.56;20.19;98296.59;4995343;28;20034;-64
2021/05/09 02:07:19;;;;;;;0.20;0.20;;;;;;;31.70;20.30;98295.94;5013225;28;20033;-63
2021/05/09 02:09:45;;;;;;;0.15;0.15;;;;;;;31.56;20.65;98309.97;4995418;28;20022;-65
2021/05/09 02:12:11;;;;;;;0.20;0.20;;;;;;;31.75;20.79;98301.25;5013083;28;20084;-64
2021/05/09 02:14:37;;;;;;;0.98;0.43;;;;;;;32.09;20.32;98306.03;5013089;28;20511;-65
2021/05/09 02:17:04;;;;;;;0.10;0.10;;;;;;;32.31;20.38;98307.88;5013013;28;20403;-65
2021/05/09 02:19:30;;;;;;;0.10;0.10;;;;;;;32.27;20.43;98309.06;5013099;28;20026;-63
2021/05/09 02:21:55;;;;;;;0.13;0.13;;;;;;;32.71;20.15;98316.72;5013167;28;20442;-65
2021/05/09 02:24:21;;;;;;;0.20;0.20;;;;;;;33.03;20.15;98318.16;5013309;28;20503;-65
2021/05/09 02:26:47;;;;;;;0.20;0.20;;;;;;;32.45;20.54;98314.88;4995300;28;20492;-66
2021/05/09 02:29:13;;;;;;;1.00;0.38;;;;;;;31.60;21.37;98317.31;5012950;28;20047;-65
2021/05/09 02:31:38;;;;;;;0.15;0.15;;;;;;;31.56;21.43;98324.16;5012859;28;20112;-65
2021/05/09 02:34:04;;;;;;;0.10;0.10;;;;;;;32.04;21.00;98318.59;5013125;28;20032;-64
2021/05/09 02:36:30;;;;;;;0.10;0.10;;;;;;;32.55;20.53;98324.72;5013091;28;20037;-64
2021/05/09 02:38:56;;;;;;;0.20;0.20;;;;;;;32.79;20.31;98326.94;5012621;28;20034;-64
2021/05/09 02:41:21;;;;;;;0.10;0.10;;;;;;;32.73;20.52;98324.84;5012647;28;20431;-64
2021/05/09 02:43:48;;;;;;;0.10;0.10;;;;;;;32.27;21.04;98324.09;5012466;28;20030;-65
2021/05/09 02:46:14;;;;;;;0.22;0.22;;;;;;;32.18;21.14;98329.28;5012680;28;20041;-65
2021/05/09 02:48:39;;;;;;;0.20;0.20;;;;;;;31.86;21.36;98334.59;5012378;28;20395;-62
2021/05/09 02:51:06;;;;;;;0.15;0.15;;;;;;;31.32;21.86;98331.94;4994810;28;20054;-62
2021/05/09 02:53:32;;;;;;;0.10;0.10;;;;;;;30.98;22.00;98331.88;5013055;28;20034;-63
2021/05/09 02:55:58;;;;;;;0.28;0.28;;;;;;;31.08;21.90;98336.91;5012777;28;20037;-63
2021/05/09 02:58:23;;;;;;;0.30;0.20;;;;;;;31.28;21.61;98336.75;4978484;28;20060;-63
2021/05/09 03:00:49;;;;;;;0.10;0.10;;;;;;;31.56;21.48;98335.50;5012939;28;20037;-63
2021/05/09 03:03:15;;;;;;;0.52;0.32;;;;;;;31.90;21.08;98332.63;5012826;28;20033;-63
2021/05/09 03:05:41;;;;;;;0.20;0.20;;;;;;;32.32;20.73;98337.13;5012933;28;20037;-63
2021/05/09 03:08:07;;;;;;;0.10;0.10;;;;;;;32.49;20.54;98341.31;5012684;28;20034;-64
2021/05/09 03:10:33;;;;;;;1.42;0.63;;;;;;;32.76;20.50;98330.59;5012755;28;20410;-63
2021/05/09 03:13:00;;;;;;;0.20;0.20;;;;;;;33.27;19.90;98336.56;5012244;28;20073;-63
2021/05/09 03:15:26;;;;;;;0.10;0.10;;;;;;;34.06;19.35;98336.84;5012248;28;20072;-64
2021/05/09 03:17:51;;;;;;;0.10;0.10;;;;;;;34.52;19.04;98341.75;4978450;28;20041;-64
2021/05/09 03:20:17;;;;;;;0.10;0.10;;;;;;;34.85;18.59;98342.59;5012577;28;20030;-63
2021/05/09 03:22:43;;;;;;;0.13;0.13;;;;;;;35.31;18.92;98332.31;5012647;28;20125;-63
2021/05/09 03:25:09;;;;;;;0.10;0.10;;;;;;;35.49;18.80;98348.53;5012455;28;20026;-64
2021/05/09 03:27:35;;;;;;;0.10;0.10;;;;;;;34.79;19.01;98341.38;5008726;28;20410;-63
2021/05/09 03:30:01;;;;;;;0.17;0.17;;;;;;;34.07;19.91;98346.19;5011742;28;20065;-62
2021/05/09 03:32:26;;;;;;;0.10;0.10;;;;;;;32.98;20.89;98340.06;4994475;28;20419;-62
2021/05/09 03:34:52;;;;;;;0.10;0.10;;;;;;;31.93;21.91;98338.34;5011877;28;20443;-62
2021/05/09 03:37:18;;;;;;;0.15;0.15;;;;;;;31.05;22.50;98340.53;5012128;28;20480;-63
2021/05/09 03:39:44;;;;;;;0.05;0.05;;;;;;;30.22;23.20;98344.03;5012337;28;20082;-62
2021/05/09 03:42:10;;;;;;;0.20;0.20;;;;;;;29.70;23.42;98340.63;5011848;28;20408;-62
2021/05/09 03:44:36;;;;;;;0.10;0.10;;;;;;;29.67;22.93;98341.38;5013946;28;20060;-62
2021/05/09 03:47:01;;;;;;;0.10;0.10;;;;;;;29.81;22.61;98341.63;5014054;28;20069;-63
2021/05/09 03:49:27;;;;;;;0.43;0.43;;;;;;;29.66;22.62;98340.53;5013927;28;20056;-61
2021/05/09 03:51:53;;;;;;;0.10;0.10;;;;;;;29.29;22.87;98335.34;5011122;28;20026;-63
2021/05/09 03:54:20;;;;;;;0.10;0.10;;;;;;;28.97;22.87;98329.78;5012177;28;20061;-62
2021/05/09 03:56:46;;;;;;;0.10;0.10;;;;;;;28.66;22.89;98337.16;5013466;28;20049;-62
2021/05/09 03:59:12;;;;;;;0.10;0.10;;;;;;;28.51;23.11;98332.34;5013449;28;20072;-59
2021/05/09 04:01:39;;;;;;;0.15;0.15;;;;;;;28.42;22.86;98337.38;5013649;28;20030;-62
2021/05/09 04:04:05;;;;;;;0.20;0.20;;;;;;;28.54;22.58;98328.78;5013587;28;20034;-63
2021/05/09 04:06:31;;;;;;;0.13;0.13;;;;;;;29.07;21.92;98331.22;5011509;28;20495;-61
2021/05/09 04:08:56;;;;;;;0.10;0.10;;;;;;;29.63;21.07;98332.81;5013754;28;20041;-60
2021/05/09 04:11:22;;;;;;;0.10;0.10;;;;;;;30.26;20.85;98332.78;5015499;28;20040;-63
2021/05/09 04:13:49;;;;;;;0.52;0.20;;;;;;;30.86;20.24;98332.09;5014586;28;20034;-67
2021/05/09 04:16:15;;;;;;;0.10;0.10;;;;;;;31.26;19.92;98331.47;5014547;28;20032;-61
2021/05/09 04:18:41;;;;;;;0.10;0.10;;;;;;;31.75;19.57;98326.00;5015371;28;20049;-61
2021/05/09 04:21:08;;;;;;;0.25;0.25;;;;;;;31.94;19.47;98325.78;5015338;28;20542;-61
2021/05/09 04:23:34;;;;;;;0.40;0.35;;;;;;;32.11;19.62;98330.03;5014823;28;20109;-62
2021/05/09 04:25:59;;;;;;;0.10;0.10;;;;;;;32.16;19.64;98334.53;5015244;28;20422;-62
2021/05/09 04:28:26;;;;;;;1.10;0.13;;;;;;;32.13;19.86;98333.28;5014732;28;20033;-62
2021/05/09 04:30:52;;;;;;;0.10;0.10;;;;;;;32.12;19.46;98331.66;5014901;28;20129;-64
2021/05/09 04:33:24;;;;;;;0.15;0.15;;;;;;;32.07;19.77;98331.19;5013517;28;20034;-62
2021/05/09 04:35:50;;;;;;;0.20;0.20;;;;;;;31.89;19.83;98337.50;5013963;28;20034;-61
2021/05/09 04:38:16;;;;;;;0.20;0.20;;;;;;;31.77;19.82;98335.75;5013870;28;20507;-62
2021/05/09 04:40:41;;;;;;;0.10;0.10;;;;;;;31.64;20.07;98333.56;5014614;28;20033;-62
2021/05/09 04:43:13;;;;;;;0.20;0.20;;;;;;;31.71;19.88;98325.13;5014569;28;20042;-63
2021/05/09 04:45:39;;;;;;;0.10;0.10;;;;;;;31.50;20.03;98337.84;5014381;28;20065;-62
2021/05/09 04:48:06;;;;;;;0.20;0.20;;;;;;;31.28;20.19;98337.56;5014297;28;20030;-63
2021/05/09 04:50:33;;;;;;;0.10;0.10;;;;;;;31.12;20.44;98334.13;5014766;28;20120;-63
2021/05/09 04:52:59;;;;;;;0.10;0.10;;;;;;;31.15;20.20;98335.38;5011979;28;20400;-62
2021/05/09 04:55:25;;;;;;;0.10;0.10;;;;;;;30.98;20.21;98340.38;5014322;28;20045;-61
2021/05/09 04:57:51;;;;;;;0.10;0.10;;;;;;;30.55;20.64;98340.56;5014501;28;20030;-61
2021/05/09 05:00:17;;;;;;;0.10;0.10;;;;;;;29.68;21.04;98348.66;5014571;28;20033;-63
2021/05/09 05:02:44;;;;;;;0.10;0.10;;;;;;;28.52;22.21;98328.34;5012482;28;20120;-61
2021/05/09 05:05:11;;;;;;;0.10;0.10;;;;;;;27.81;22.63;98336.56;5014212;28;20025;-63
2021/05/09 05:07:37;;;;;;;0.10;0.10;;;;;;;27.12;22.80;98332.97;5014456;28;20442;-62
2021/05/09 05:10:04;;;;;;;0.10;0.10;;;;;;;26.43;23.03;98341.28;4992890;28;20052;-60
2021/05/09 05:12:29;;;;;;;0.10;0.10;;;;;;;25.83;23.85;98336.03;5013806;28;20037;-59
2021/05/09 05:14:55;;;;;;;0.28;0.28;;;;;;;25.34;23.60;98336.72;5014089;28;20030;-60
2021/05/09 05:17:21;;;;;;;0.15;0.15;;;;;;;25.04;23.73;98347.16;5014013;28;20569;-59
2021/05/09 05:19:47;;;;;;;0.40;0.40;;;;;;;24.79;23.60;98344.22;5013872;28;20137;-59
2021/05/09 05:22:13;;;;;;;0.10;0.10;;;;;;;24.55;23.93;98331.63;5013547;28;20069;-60
2021/05/09 05:24:39;;;;;;;0.05;0.05;;;;;;;24.51;23.29;98338.25;5013633;28;20515;-61
2021/05/09 05:27:05;;;;;;;0.10;0.10;;;;;;;24.42;23.33;98343.91;5013827;28;20037;-59
2021/05/09 05:29:31;;;;;;;0.00;0.00;;;;;;;24.20;23.22;98348.63;4995937;28;20034;-61
2021/05/09 05:31:57;;;;;;;0.10;0.10;;;;;;;24.06;23.23;98332.03;4995793;28;20100;-60
2021/05/09 05:34:22;;;;;;;0.10;0.10;;;;;;;24.07;23.17;98336.50;5013726;28;20061;-63
2021/05/09 05:36:48;;;;;;;0.00;0.00;;;;;;;24.06;22.81;98340.44;5012123;28;20065;-60
2021/05/09 05:39:14;;;;;;;0.10;0.10;;;;;;;23.96;22.82;98332.41;5011645;28;20026;-60
2021/05/09 05:41:40;;;;;;;0.00;0.00;;;;;;;23.88;22.90;98338.84;5013283;28;20392;-63
2021/05/09 05:44:08;;;;;;;0.10;0.10;;;;;;;23.79;22.88;98342.50;5012281;28;20076;-59
2021/05/09 05:46:34;;;;;;;0.10;0.10;;;;;;;23.79;22.85;98331.28;5013731;28;20025;-58
2021/05/09 05:49:00;;;;;;;0.10;0.10;;;;;;;23.88;22.94;98338.84;5013003;28;20034;-55
2021/05/09 05:51:26;;;;;;;0.10;0.10;;;;;;;23.98;22.61;98332.06;5012588;28;20037;-61
2021/05/09 05:53:57;;;;;;;0.10;0.10;;;;;;;24.11;22.56;98325.41;4995514;28;20029;-59
2021/05/09 05:56:26;;;;;;;0.10;0.10;;;;;;;23.93;22.52;98333.88;5011364;28;20030;-58
2021/05/09 05:58:52;;;;;;;0.00;0.00;;;;;;;23.97;22.48;98325.66;5009873;28;20062;-64
2021/05/09 06:01:18;;;;;;;0.10;0.10;;;;;;;24.09;22.14;98338.97;5012864;28;20041;-57
2021/05/09 06:03:45;;;;;;;0.38;0.30;;;;;;;23.94;22.34;98329.94;5011849;28;20075;-58
2021/05/09 06:06:11;;;;;;;0.13;0.13;;;;;;;23.80;22.51;98335.72;4978937;28;20160;-59
2021/05/09 06:08:38;;;;;;;0.10;0.10;;;;;;;23.80;22.33;98334.91;5013271;28;20111;-58
2021/05/09 06:11:03;;;;;;;0.10;0.10;;;;;;;23.72;22.48;98330.16;5012926;28;20034;-59
2021/05/09 06:13:29;;;;;;;0.47;0.47;;;;;;;23.70;22.53;98336.06;5012821;28;20036;-54
2021/05/09 06:15:55;;;;;;;0.10;0.10;;;;;;;23.73;22.24;98357.84;5012772;28;20034;-57
2021/05/09 06:18:21;;;;;;;0.10;0.10;;;;;;;23.61;22.30;98340.88;5013036;28;20201;-56
2021/05/09 06:20:47;;;;;;;0.10;0.10;;;;;;;23.58;22.30;98322.75;4995117;28;20034;-58
2021/05/09 06:23:12;;;;;;;0.20;0.20;;;;;;;23.65;22.33;98325.03;5011265;28;20554;-57
2021/05/09 06:25:38;;;;;;;0.10;0.10;;;;;;;23.71;22.02;98326.50;5013146;28;20118;-57
2021/05/09 06:28:05;;;;;;;0.00;0.00;;;;;;;23.76;21.76;98328.31;5011799;28;20500;-59
2021/05/09 06:30:31;;;;;;;0.10;0.10;;;;;;;23.68;21.97;98329.16;5010622;28;20065;-57
2021/05/09 06:32:57;;;;;;;0.20;0.20;;;;;;;23.65;21.94;98322.25;5011974;28;20121;-59
2021/05/09 06:35:23;;;;;;;0.20;0.20;;;;;;;23.65;21.88;98327.84;5010212;28;20033;-62
2021/05/09 06:37:52;;;;;;;0.73;0.30;;;;;;;23.67;21.96;98319.09;5010868;28;20041;-58
2021/05/09 06:40:19;;;;;;;0.20;0.20;;;;;;;23.66;22.02;98323.91;5011029;28;20033;-59
2021/05/09 06:42:45;;;;;;;0.17;0.17;;;;;;;23.66;21.54;98318.28;5011045;28;20475;-59
2021/05/09 06:45:23;;;;;;;1.58;0.40;;;;;;;23.67;21.69;98331.13;5010944;28;20581;-60
2021/05/09 06:47:50;;;;;;;0.45;0.45;;;;;;;23.64;21.97;98326.19;5009224;28;20091;-59
2021/05/09 06:50:15;;;;;;;0.10;0.10;;;;;;;23.68;21.52;98327.19;5011025;28;20036;-62
2021/05/09 06:52:44;;;;;;;0.10;0.10;;;;;;;23.67;21.60;98327.50;5010789;28;20030;-61
2021/05/09 06:55:12;;;;;;;0.10;0.10;;;;;;;23.64;21.60;98322.59;5010772;28;20037;-63
2021/05/09 06:57:39;;;;;;;0.00;0.00;;;;;;;23.64;21.52;98316.97;5010354;28;20030;-62
2021/05/09 07:00:10;;;;;;;0.10;0.10;;;;;;;23.70;21.48;98316.44;5010785;28;20042;-61
2021/05/09 07:02:36;;;;;;;0.30;0.30;;;;;;;23.80;21.33;98315.28;5010777;28;20041;-62
2021/05/09 07:05:03;;;;;;;0.10;0.10;;;;;;;23.80;21.22;98307.69;4993130;28;20519;-59
2021/05/09 07:07:29;;;;;;;0.10;0.10;;;;;;;23.74;21.31;98317.44;5010734;28;20032;-60
2021/05/09 07:09:55;;;;;;;0.20;0.20;;;;;;;23.68;21.45;98315.97;4992975;28;20026;-60
2021/05/09 07:12:21;;;;;;;0.10;0.10;;;;;;;23.72;21.10;98324.53;4992891;28;20409;-59
2021/05/09 07:14:48;;;;;;;0.30;0.30;;;;;;;23.62;21.13;98306.09;5010801;28;20052;-60
2021/05/09 07:17:15;;;;;;;0.13;0.13;;;;;;;23.58;21.08;98317.13;5013006;28;20030;-61
2021/05/09 07:19:40;;;;;;;0.15;0.10;;;;;;;23.59;21.07;98318.78;5014833;28;20041;-60
2021/05/09 07:22:16;;;;;;;0.10;0.10;;;;;;;23.59;21.07;98320.78;5014822;28;20026;-61
2021/05/09 07:24:44;;;;;;;0.17;0.17;;;;;;;23.56;21.26;98315.84;5015039;28;20048;-59
2021/05/09 07:27:10;;;;;;;0.10;0.10;;;;;;;23.55;21.05;98306.59;5015776;28;20026;-63
2021/05/09 07:29:36;;;;;;;0.20;0.20;;;;;;;23.61;20.95;98307.25;5015685;28;20065;-63
2021/05/09 07:32:02;;;;;;;0.10;0.10;;;;;;;23.64;20.93;98305.75;5015478;28;20034;-61
2021/05/09 07:34:28;;;;;;;0.63;0.47;;;;;;;23.63;20.87;98310.56;5015409;28;20377;-62
2021/05/09 07:36:54;;;;;;;0.10;0.10;;;;;;;23.61;21.02;98304.44;4997620;28;20036;-62
2021/05/09 07:39:19;;;;;;;0.10;0.10;;;;;;;23.64;20.78;98303.78;4997615;28;20030;-62
2021/05/09 07:41:45;;;;;;;0.38;0.38;;;;;;;23.70;20.68;98298.81;5014467;28;20022;-61
2021/05/09 07:44:11;;;;;;;0.63;0.40;;;;;;;23.78;20.78;98300.78;5015155;28;20526;-60
2021/05/09 07:46:37;;;;;;;0.17;0.17;;;;;;;23.91;20.44;98301.72;5014839;28;20033;-63
2021/05/09 07:49:03;;;;;;;0.30;0.30;;;;;;;23.96;20.41;98316.38;5014611;28;20026;-61
2021/05/09 07:51:29;;;;;;;0.40;0.40;;;;;;;23.93;20.42;98299.44;5011192;28;20182;-60
2021/05/09 07:53:55;;;;;;;0.10;0.10;;;;;;;23.92;20.65;98295.78;5013933;28;20052;-62
2021/05/09 07:56:21;;;;;;;0.30;0.30;;;;;;;24.06;20.56;98291.97;5012013;28;20018;-61
2021/05/09 07:58:47;;;;;;;0.75;0.30;;;;;;;24.30;19.96;98297.75;5012074;28;20042;-62
2021/05/09 08:01:12;;;;;;;0.10;0.10;;;;;;;24.51;19.82;98304.56;5010444;28;20079;-65
2021/05/09 08:03:38;;;;;;;0.17;0.17;;;;;;;24.58;19.76;98304.84;5011053;28;20037;-62
2021/05/09 08:06:04;;;;;;;0.20;0.20;;;;;;;24.69;19.73;98296.88;5014124;28;20442;-62
2021/05/09 08:08:31;;;;;;;0.10;0.10;;;;;;;24.78;19.72;98301.28;5014028;28;20030;-62
2021/05/09 08:10:58;;;;;;;0.10;0.10;;;;;;;24.83;19.94;98297.44;5013982;28;20029;-62
2021/05/09 08:13:24;;;;;;;0.77;0.40;;;;;;;24.83;19.92;98297.44;5013849;28;20034;-60
2021/05/09 08:15:50;;;;;;;0.10;0.10;;;;;;;24.86;19.62;98296.75;5011307;28;20518;-61
2021/05/09 08:18:24;;;;;;;1.65;0.20;;;;;;;24.92;19.79;98278.53;4996154;28;20052;-62
2021/05/09 08:20:50;;;;;;;0.13;0.13;;;;;;;25.14;19.28;98296.19;5012743;28;20040;-64
2021/05/09 08:23:16;;;;;;;0.55;0.20;;;;;;;25.34;19.51;98294.56;5011074;28;20038;-62
2021/05/09 08:25:42;;;;;;;0.30;0.30;;;;;;;25.51;19.11;98290.72;5012312;28;20038;-60
2021/05/09 08:28:08;;;;;;;0.43;0.43;;;;;;;25.55;19.41;98293.69;4993991;28;20059;-62
2021/05/09 08:30:34;;;;;;;0.10;0.10;;;;;;;25.50;19.28;98297.50;5012141;28;20038;-62
2021/05/09 08:33:00;;;;;;;0.17;0.17;;;;;;;25.35;19.28;98296.19;5009511;28;20124;-60
2021/05/09 08:35:26;;;;;;;0.22;0.22;;;;;;;25.19;19.64;98299.63;5009522;28;20117;-61
2021/05/09 08:37:52;;;;;;;0.30;0.30;;;;;;;25.02;19.39;98300.56;5012446;28;20038;-60
2021/05/09 08:40:18;;;;;;;0.03;0.03;;;;;;;24.87;19.65;98286.34;5011343;28;20025;-65
2021/05/09 08:42:48;;;;;;;0.10;0.10;;;;;;;24.66;19.73;98281.53;5012142;28;20032;-61
2021/05/09 08:45:15;;;;;;;0.10;0.10;;;;;;;24.52;19.69;98293.00;5012275;28;20034;-61
2021/05/09 08:47:42;;;;;;;0.22;0.22;;;;;;;24.53;19.96;98289.06;4994753;28;20029;-61
2021/05/09 08:50:10;;;;;;;0.38;0.38;;;;;;;24.62;19.76;98280.59;4994821;28;20022;-61
2021/05/09 08:52:37;;;;;;;0.20;0.20;;;;;;;24.76;19.29;98288.75;5011580;28;20033;-61
2021/05/09 08:55:05;;;;;;;0.55;0.43;;;;;;;24.86;19.53;98291.13;5012481;28;20454;-60
2021/05/09 08:57:32;;;;;;;0.20;0.20;;;;;;;25.04;19.03;98285.38;5012305;28;20049;-59
2021/05/09 08:59:57;;;;;;;0.30;0.30;;;;;;;25.23;19.05;98293.31;4970844;28;20045;-59
2021/05/09 09:02:23;;;;;;;0.32;0.10;;;;;;;25.34;18.87;98305.81;4972213;28;20038;-60
2021/05/09 09:04:54;;;;;;;0.20;0.20;;;;;;;25.30;18.90;98297.22;4973267;28;20114;-60
2021/05/09 09:07:20;;;;;;;2.83;0.47;;;;;;;25.26;19.07;98301.84;4973198;28;20031;-60
2021/05/09 09:09:48;;;;;;;0.75;0.32;;;;;;;25.27;19.15;98297.06;4974031;28;20118;-60
2021/05/09 09:12:16;;;;;;;0.70;0.40;;;;;;;25.31;19.06;98298.88;4972500;28;20062;-59
2021/05/09 09:14:56;;;;;;;0.10;0.10;;;;;;;25.38;18.94;98297.47;4973191;28;20041;-59
2021/05/09 09:17:22;;;;;;;0.47;0.47;;;;;;;25.31;18.79;98304.50;4971175;28;20034;-61
2021/05/09 09:20:08;;;;;;;0.10;0.10;;;;;;;25.27;18.97;98297.06;4988048;28;20030;-61
2021/05/09 09:22:55;;;;;;;2.13;1.08;;;;;;;25.34;18.93;98295.38;4972660;28;20038;-61
2021/05/09 09:25:27;;;;;;;0.10;0.10;;;;;;;25.53;18.82;98305.28;4972797;28;20074;-59
2021/05/09 09:27:55;;;;;;;2.72;0.40;;;;;;;25.65;18.42;98307.31;4972538;28;20034;-61
2021/05/09 09:30:23;;;;;;;0.10;0.10;;;;;;;25.63;18.43;98306.81;4971867;28;20027;-61
2021/05/09 09:33:17;;;;;;;0.38;0.38;;;;;;;25.55;18.82;98294.50;4972753;28;20062;-59
2021/05/09 09:35:46;;;;;;;0.40;0.40;;;;;;;25.63;18.37;98304.00;4968180;28;20027;-60
2021/05/09 09:38:32;;;;;;;0.32;0.32;;;;;;;25.77;18.47;98300.88;4987357;28;20107;-61
2021/05/09 09:41:18;;;;;;;0.22;0.22;;;;;;;25.87;18.54;98295.63;4969586;28;20041;-60
2021/05/09 09:44:11;;;;;;;0.63;0.45;;;;;;;25.91;18.20;98301.34;4970831;28;20049;-60
2021/05/09 09:46:55;;;;;;;0.75;0.40;;;;;;;25.84;18.44;98296.31;4973279;28;20372;-60
2021/05/09 09:49:27;;;;;;;0.20;0.20;;;;;;;25.79;18.69;98287.28;4971388;28;20073;-59
2021/05/09 09:51:56;;;;;;;0.28;0.28;;;;;;;25.76;18.72;98305.66;4973213;28;20034;-62
2021/05/09 09:54:46;;;;;;;0.80;0.20;;;;;;;25.80;18.55;98286.13;4969383;28;20049;-62
2021/05/09 09:57:29;;;;;;;0.50;0.50;;;;;;;25.92;18.63;98285.31;4973259;28;20042;-61
2021/05/09 10:00:09;;;;;;;0.63;0.63;;;;;;;25.96;18.61;98303.94;5011208;28;20543;-55
2021/05/09 10:02:36;;;;;;;0.28;0.28;;;;;;;25.87;18.36;98306.88;5011832;28;20403;-57
2021/05/09 10:05:03;;;;;;;0.20;0.20;;;;;;;25.85;18.35;98308.38;4994243;28;20030;-59
2021/05/09 10:07:28;;;;;;;0.32;0.32;;;;;;;25.80;18.28;98323.50;5011589;28;20025;-61
2021/05/09 10:09:57;;;;;;;0.30;0.30;;;;;;;25.73;18.42;98299.94;4993506;28;20030;-64
2021/05/09 10:12:26;;;;;;;0.40;0.40;;;;;;;25.76;18.57;98291.59;5011077;28;20245;-63
2021/05/09 10:14:53;;;;;;;0.20;0.20;;;;;;;25.79;18.53;98307.78;5010528;28;20111;-63
2021/05/09 10:17:23;;;;;;;0.50;0.50;;;;;;;25.78;18.15;98299.69;4992939;28;20026;-61
2021/05/09 10:19:51;;;;;;;0.20;0.20;;;;;;;25.64;18.29;98297.22;5010866;28;20026;-63
2021/05/09 10:22:31;;;;;;;0.30;0.30;;;;;;;25.48;18.58;98297.84;5010748;28;20093;-58
2021/05/09 10:24:57;;;;;;;0.13;0.13;;;;;;;25.35;18.61;98310.22;5011158;28;20022;-60
2021/05/09 10:27:42;;;;;;;2.63;0.52;;;;;;;25.07;18.79;98291.13;5011240;28;20034;-63
2021/05/09 10:30:13;;;;;;;1.55;0.52;;;;;;;24.82;19.11;98302.25;5009965;28;20030;-61
2021/05/09 10:32:38;;;;;;;0.20;0.20;;;;;;;24.59;19.02;98312.16;5012002;28;20103;-60
2021/05/09 10:35:07;;;;;;;0.10;0.10;;;;;;;24.39;19.32;98314.53;5011958;28;20531;-62
2021/05/09 10:37:38;;;;;;;0.77;0.75;;;;;;;24.21;19.07;98305.41;5011009;28;20034;-62
2021/05/09 10:40:19;;;;;;;0.28;0.28;;;;;;;24.08;19.04;98300.84;5011444;28;20022;-62
2021/05/09 10:43:08;;;;;;;0.77;0.57;;;;;;;24.00;19.36;98308.16;5011047;28;20042;-62
2021/05/09 10:45:34;;;;;;;0.30;0.30;;;;;;;23.94;19.20;98313.13;4994091;28;20030;-63
2021/05/09 10:48:31;;;;;;;0.25;0.25;;;;;;;23.90;19.11;98298.13;5011870;28;20033;-63
2021/05/09 10:51:03;;;;;;;0.20;0.20;;;;;;;23.96;19.18;98305.19;5013098;28;20400;-58
2021/05/09 10:53:35;;;;;;;0.22;0.22;;;;;;;24.04;18.98;98311.94;5015982;28;20038;-59
2021/05/09 10:56:11;;;;;;;0.35;0.30;;;;;;;24.01;18.86;98306.97;5016020;28;20034;-60
2021/05/09 10:58:47;;;;;;;0.57;0.57;;;;;;;23.99;18.74;98303.69;5015784;28;20404;-60
2021/05/09 11:01:20;;;;;;;0.32;0.32;;;;;;;24.01;18.67;98306.16;5015049;28;20047;-65
2021/05/09 11:03:47;;;;;;;0.20;0.20;;;;;;;24.05;18.77;98307.94;5015624;28;20042;-62
2021/05/09 11:06:23;;;;;;;0.50;0.50;;;;;;;24.12;18.92;98313.84;4981642;28;20057;-59
2021/05/09 11:08:59;;;;;;;0.60;0.40;;;;;;;24.20;18.74;98303.75;5015752;28;20076;-61
2021/05/09 11:11:25;;;;;;;0.30;0.30;;;;;;;24.37;18.68;98314.06;5015846;28;20557;-61
2021/05/09 11:14:08;;;;;;;0.20;0.20;;;;;;;24.55;18.58;98305.53;4998158;28;20034;-59
2021/05/09 11:17:02;;;;;;;0.20;0.20;;;;;;;24.65;18.42;98296.75;5015656;28;20057;-59
2021/05/09 11:19:40;;;;;;;0.43;0.43;;;;;;;24.92;18.27;98303.00;5015744;28;20454;-59
2021/05/09 11:22:07;;;;;;;0.28;0.28;;;;;;;24.99;17.98;98294.84;5015289;28;20434;-60
2021/05/09 11:24:35;;;;;;;0.30;0.30;;;;;;;24.99;17.92;98306.06;5015246;28;20029;-62
2021/05/09 11:27:10;;;;;;;0.65;0.35;;;;;;;24.96;17.84;98306.75;5015129;28;20500;-61
2021/05/09 11:29:41;;;;;;;0.20;0.20;;;;;;;24.94;18.24;98300.66;5015261;28;20030;-60
2021/05/09 11:32:09;;;;;;;0.80;0.20;;;;;;;24.97;18.08;98309.22;4997880;28;20075;-59
2021/05/09 11:34:35;;;;;;;0.40;0.40;;;;;;;24.86;18.45;98307.19;5015261;28;20052;-59
2021/05/09 11:37:01;;;;;;;0.00;0.00;;;;;;;24.76;18.14;98314.00;5015347;28;20026;-59